createdAt,value
2023-12-01T00:01:47.266Z,84.29
2023-12-01T00:04:13.800Z,84.19
2023-12-01T00:06:40.376Z,84.62
2023-12-01T00:09:06.804Z,84.25
2023-12-01T00:11:33.310Z,84.25
2023-12-01T00:13:59.747Z,84.67
2023-12-01T00:16:26.157Z,84.63
2023-12-01T00:18:52.620Z,84.89
2023-12-01T00:21:19.046Z,84.48
2023-12-01T00:23:45.448Z,84.42
2023-12-01T00:26:11.835Z,84.07
2023-12-01T00:28:38.269Z,84.48
2023-12-01T00:31:04.690Z,84.70
2023-12-01T00:33:31.254Z,84.63
2023-12-01T00:35:57.680Z,84.37
2023-12-01T00:38:24.102Z,84.14
2023-12-01T00:40:50.514Z,84.21
2023-12-01T00:43:17.007Z,83.86
2023-12-01T00:45:43.524Z,84.09
2023-12-01T00:48:09.993Z,84.39
2023-12-01T00:50:36.483Z,84.34
2023-12-01T00:53:02.924Z,83.96
2023-12-01T00:55:29.348Z,83.80
2023-12-01T00:57:55.919Z,83.70
2023-12-01T01:00:22.467Z,83.88
2023-12-01T01:02:48.932Z,84.19
2023-12-01T01:05:15.477Z,84.65
2023-12-01T01:07:41.907Z,84.97
2023-12-01T01:10:08.394Z,84.59
2023-12-01T01:12:34.861Z,84.96
2023-12-01T01:15:01.293Z,84.54
2023-12-01T01:17:27.725Z,84.46
2023-12-01T01:19:54.128Z,84.67
2023-12-01T01:22:20.515Z,84.37
2023-12-01T01:24:47.025Z,84.61
2023-12-01T01:27:13.501Z,84.17
2023-12-01T01:29:39.937Z,84.42
2023-12-01T01:32:07.244Z,84.24
2023-12-01T01:34:33.758Z,84.15
2023-12-01T01:37:00.263Z,83.94
2023-12-01T01:39:26.719Z,83.91
2023-12-01T01:41:53.188Z,84.18
2023-12-01T01:44:19.626Z,83.84
2023-12-01T01:46:46.121Z,84.54
2023-12-01T01:49:12.653Z,84.17
2023-12-01T01:51:39.192Z,83.68
2023-12-01T01:54:05.641Z,84.12
2023-12-01T01:56:32.042Z,84.01
2023-12-01T01:58:58.489Z,84.44
2023-12-01T02:01:25.084Z,83.99
2023-12-01T02:03:51.602Z,84.22
2023-12-01T02:06:18.030Z,84.48
2023-12-01T02:08:44.571Z,84.41
2023-12-01T02:11:10.962Z,84.32
2023-12-01T02:13:37.392Z,84.32
2023-12-01T02:16:03.813Z,84.16
2023-12-01T02:18:30.359Z,84.18
2023-12-01T02:20:56.811Z,83.98
2023-12-01T02:23:23.361Z,83.75
2023-12-01T02:25:49.826Z,83.45
2023-12-01T02:28:16.285Z,83.87
2023-12-01T02:30:42.813Z,83.57
2023-12-01T02:33:09.274Z,83.52
2023-12-01T02:35:35.728Z,83.16
2023-12-01T02:38:02.240Z,83.34
2023-12-01T02:40:28.732Z,83.01
2023-12-01T02:42:55.154Z,83.52
2023-12-01T02:45:21.622Z,83.36
2023-12-01T02:47:48.094Z,82.66
2023-12-01T02:50:14.544Z,82.71
2023-12-01T02:52:40.948Z,82.65
2023-12-01T02:55:07.374Z,82.31
2023-12-01T02:57:33.940Z,82.66
2023-12-01T03:00:00.421Z,81.81
2023-12-01T03:02:26.933Z,82.46
2023-12-01T03:04:53.343Z,82.44
2023-12-01T03:07:19.785Z,82.18
2023-12-01T03:09:46.249Z,81.98
2023-12-01T03:12:12.649Z,82.57
2023-12-01T03:14:39.096Z,82.92
2023-12-01T03:17:26.802Z,82.77
2023-12-01T03:19:53.372Z,82.05
2023-12-01T03:22:19.783Z,82.50
2023-12-01T03:24:46.217Z,82.39
2023-12-01T03:27:12.641Z,81.76
2023-12-01T03:29:39.153Z,81.43
2023-12-01T03:32:05.616Z,83.06
2023-12-01T03:34:32.105Z,82.62
2023-12-01T03:36:58.515Z,83.21
2023-12-01T03:39:24.966Z,82.06
2023-12-01T03:41:51.371Z,82.92
2023-12-01T03:44:17.938Z,82.71
2023-12-01T03:46:44.475Z,83.00
2023-12-01T03:49:10.938Z,82.77
2023-12-01T03:51:37.392Z,82.99
2023-12-01T03:54:03.815Z,83.22
2023-12-01T03:56:30.269Z,82.11
2023-12-01T03:58:56.649Z,82.46
2023-12-01T04:01:23.089Z,82.10
2023-12-01T04:03:49.604Z,82.66
2023-12-01T04:06:16.552Z,82.24
2023-12-01T04:08:43.033Z,82.47
2023-12-01T04:11:09.450Z,82.23
2023-12-01T04:13:35.908Z,82.37
2023-12-01T04:16:02.443Z,81.84
2023-12-01T04:18:28.908Z,82.02
2023-12-01T04:20:55.326Z,81.50
2023-12-01T04:23:21.733Z,82.02
2023-12-01T04:25:48.344Z,81.82
2023-12-01T04:28:14.861Z,82.28
2023-12-01T04:30:41.342Z,82.23
2023-12-01T04:33:07.847Z,82.16
2023-12-01T04:35:34.351Z,81.86
2023-12-01T04:38:03.861Z,82.28
2023-12-01T04:40:30.337Z,81.79
2023-12-01T04:42:56.797Z,81.83
2023-12-01T04:45:23.205Z,81.88
2023-12-01T04:47:49.688Z,81.97
2023-12-01T04:50:16.134Z,81.92
2023-12-01T04:52:42.625Z,82.11
2023-12-01T04:55:09.110Z,81.76
2023-12-01T04:57:35.603Z,81.30
2023-12-01T05:00:02.066Z,81.65
2023-12-01T05:02:28.577Z,81.38
2023-12-01T05:04:55.076Z,81.21
2023-12-01T05:07:21.719Z,80.64
2023-12-01T05:09:48.177Z,80.75
2023-12-01T05:12:14.615Z,80.77
2023-12-01T05:14:41.124Z,80.53
2023-12-01T05:17:07.546Z,80.89
2023-12-01T05:19:33.953Z,81.11
2023-12-01T05:22:00.400Z,81.34
2023-12-01T05:24:26.934Z,80.78
2023-12-01T05:26:55.242Z,80.48
2023-12-01T05:29:21.882Z,80.69
2023-12-01T05:31:48.305Z,81.03
2023-12-01T05:34:14.881Z,80.60
2023-12-01T05:36:41.467Z,80.63
2023-12-01T05:39:07.901Z,80.62
2023-12-01T05:41:34.329Z,80.94
2023-12-01T05:44:00.808Z,80.39
2023-12-01T05:46:27.333Z,80.78
2023-12-01T05:48:53.811Z,80.94
2023-12-01T05:51:20.243Z,80.29
2023-12-01T05:53:46.651Z,80.72
2023-12-01T05:56:13.082Z,80.78
2023-12-01T05:58:39.519Z,80.46
2023-12-01T06:01:06.032Z,80.44
2023-12-01T06:03:32.477Z,80.93
2023-12-01T06:05:58.979Z,80.62
2023-12-01T06:08:25.386Z,80.52
2023-12-01T06:10:51.802Z,80.67
2023-12-01T06:13:18.308Z,80.36
2023-12-01T06:15:44.828Z,80.76
2023-12-01T06:18:11.320Z,80.47
2023-12-01T06:20:37.784Z,80.09
2023-12-01T06:23:04.280Z,80.31
2023-12-01T06:25:31.045Z,80.80
2023-12-01T06:27:57.678Z,80.52
2023-12-01T06:30:24.340Z,80.65
2023-12-01T06:32:50.775Z,80.73
2023-12-01T06:35:17.246Z,80.89
2023-12-01T06:37:45.995Z,80.39
2023-12-01T06:40:13.526Z,80.44
2023-12-01T06:42:40.333Z,80.52
2023-12-01T06:45:06.822Z,80.49
2023-12-01T06:47:33.333Z,80.43
2023-12-01T06:49:59.793Z,80.50
2023-12-01T06:52:27.643Z,80.37
2023-12-01T06:54:54.950Z,80.14
2023-12-01T06:57:21.390Z,80.20
2023-12-01T06:59:47.834Z,80.58
2023-12-01T07:02:14.297Z,80.21
2023-12-01T07:04:40.737Z,79.97
2023-12-01T07:07:07.219Z,80.22
2023-12-01T07:09:35.124Z,79.96
2023-12-01T07:12:02.643Z,79.52
2023-12-01T07:14:29.077Z,79.91
2023-12-01T07:16:55.551Z,79.71
2023-12-01T07:19:22.047Z,79.56
2023-12-01T07:21:48.495Z,79.60
2023-12-01T07:24:14.994Z,79.51
2023-12-01T07:26:41.387Z,79.31
2023-12-01T07:29:07.869Z,79.38
2023-12-01T07:31:34.317Z,79.21
2023-12-01T07:34:00.778Z,78.57
2023-12-01T07:36:35.531Z,78.10
2023-12-01T07:39:07.511Z,78.13
2023-12-01T07:41:34.676Z,78.08
2023-12-01T07:44:01.102Z,78.32
2023-12-01T07:46:27.600Z,77.96
2023-12-01T07:48:54.110Z,76.96
2023-12-01T07:51:35.827Z,76.54
2023-12-01T07:54:02.236Z,75.98
2023-12-01T07:56:28.644Z,75.40
2023-12-01T07:58:55.074Z,75.39
2023-12-01T08:01:21.478Z,75.03
2023-12-01T08:03:51.229Z,74.67
2023-12-01T08:06:17.642Z,75.01
2023-12-01T08:08:44.070Z,76.03
2023-12-01T08:11:10.613Z,76.40
2023-12-01T08:13:37.055Z,76.94
2023-12-01T08:16:03.606Z,77.10
2023-12-01T08:18:30.090Z,77.36
2023-12-01T08:20:56.623Z,77.99
2023-12-01T08:23:23.121Z,78.52
2023-12-01T08:25:49.535Z,78.21
2023-12-01T08:28:16.013Z,78.71
2023-12-01T08:30:48.809Z,78.21
2023-12-01T08:33:16.066Z,79.22
2023-12-01T08:35:42.678Z,79.27
2023-12-01T08:38:09.119Z,78.71
2023-12-01T08:40:43.084Z,78.25
2023-12-01T08:43:10.649Z,78.35
2023-12-01T08:45:37.121Z,78.82
2023-12-01T08:48:03.645Z,79.38
2023-12-01T08:50:30.169Z,78.87
2023-12-01T08:52:56.611Z,78.94
2023-12-01T08:55:23.111Z,78.77
2023-12-01T08:57:49.582Z,77.79
2023-12-01T09:00:16.149Z,77.29
2023-12-01T09:02:42.588Z,77.14
2023-12-01T09:05:09.110Z,77.34
2023-12-01T09:07:35.554Z,77.46
2023-12-01T09:10:02.039Z,76.93
2023-12-01T09:12:28.700Z,77.48
2023-12-01T09:14:55.522Z,77.69
2023-12-01T09:17:22.197Z,77.77
2023-12-01T09:19:48.748Z,77.84
2023-12-01T09:22:15.254Z,77.95
2023-12-01T09:24:41.672Z,78.05
2023-12-01T09:27:08.147Z,78.39
2023-12-01T09:29:34.693Z,77.98
2023-12-01T09:32:01.161Z,78.06
2023-12-01T09:34:27.593Z,78.25
2023-12-01T09:36:54.026Z,77.90
2023-12-01T09:39:20.603Z,78.01
2023-12-01T09:41:47.120Z,78.09
2023-12-01T09:44:14.652Z,78.07
2023-12-01T09:46:41.470Z,77.40
2023-12-01T09:49:07.908Z,77.57
2023-12-01T09:51:34.361Z,76.77
2023-12-01T09:54:00.869Z,76.63
2023-12-01T09:56:27.336Z,77.08
2023-12-01T09:58:53.740Z,76.27
2023-12-01T10:01:20.176Z,76.99
2023-12-01T10:03:46.764Z,76.57
2023-12-01T10:06:13.294Z,76.33
2023-12-01T10:08:39.881Z,77.21
2023-12-01T10:11:06.354Z,76.82
2023-12-01T10:13:32.804Z,76.18
2023-12-01T10:15:59.227Z,75.54
2023-12-01T10:18:27.197Z,75.52
2023-12-01T10:20:54.463Z,75.03
2023-12-01T10:23:21.019Z,74.86
2023-12-01T10:25:47.427Z,75.55
2023-12-01T10:28:14.153Z,76.27
2023-12-01T10:30:40.735Z,76.38
2023-12-01T10:33:07.220Z,76.45
2023-12-01T10:35:33.686Z,76.63
2023-12-01T10:38:00.087Z,75.33
2023-12-01T10:40:26.620Z,74.82
2023-12-01T10:42:53.024Z,75.16
2023-12-01T10:45:19.472Z,75.20
2023-12-01T10:47:46.023Z,74.93
2023-12-01T10:50:12.505Z,73.65
2023-12-01T10:52:38.901Z,73.75
2023-12-01T10:55:05.309Z,73.78
2023-12-01T10:57:31.678Z,74.71
2023-12-01T10:59:59.919Z,74.82
2023-12-01T11:02:26.691Z,75.19
2023-12-01T11:04:53.259Z,75.31
2023-12-01T11:07:19.742Z,75.43
2023-12-01T11:09:46.140Z,76.02
2023-12-01T11:12:12.616Z,75.55
2023-12-01T11:14:39.026Z,75.50
2023-12-01T11:17:05.491Z,75.88
2023-12-01T11:19:31.943Z,75.97
2023-12-01T11:21:58.436Z,75.51
2023-12-01T11:24:24.907Z,75.60
2023-12-01T11:26:51.361Z,75.12
2023-12-01T11:29:17.797Z,75.45
2023-12-01T11:31:44.353Z,75.39
2023-12-01T11:34:11.064Z,74.78
2023-12-01T11:36:37.832Z,74.78
2023-12-01T11:39:04.397Z,74.89
2023-12-01T11:41:30.863Z,74.37
2023-12-01T11:43:57.290Z,74.55
2023-12-01T11:46:23.815Z,74.55
2023-12-01T11:48:50.603Z,75.02
2023-12-01T11:51:17.187Z,74.71
2023-12-01T11:53:43.714Z,75.05
2023-12-01T11:56:10.130Z,74.09
2023-12-01T11:58:36.573Z,74.54
2023-12-01T12:01:02.954Z,75.14
2023-12-01T12:03:29.405Z,75.54
2023-12-01T12:05:56.142Z,75.45
2023-12-01T12:08:22.615Z,75.95
2023-12-01T12:10:49.075Z,75.60
2023-12-01T12:13:15.725Z,75.24
2023-12-01T12:15:42.230Z,75.37
2023-12-01T12:18:08.974Z,74.74
2023-12-01T12:20:35.519Z,74.05
2023-12-01T12:23:01.972Z,74.95
2023-12-01T12:25:28.410Z,75.45
2023-12-01T12:27:54.889Z,75.20
2023-12-01T12:30:21.414Z,74.99
2023-12-01T12:32:48.065Z,74.93
2023-12-01T12:35:14.680Z,75.26
2023-12-01T12:37:41.077Z,75.46
2023-12-01T12:40:07.475Z,76.23
2023-12-01T12:42:33.949Z,76.41
2023-12-01T12:45:00.437Z,76.65
2023-12-01T12:47:26.857Z,76.50
2023-12-01T12:49:53.281Z,76.46
2023-12-01T12:52:19.648Z,75.19
2023-12-01T12:54:46.045Z,74.98
2023-12-01T12:57:12.494Z,75.30
2023-12-01T12:59:39.005Z,75.16
2023-12-01T13:02:05.490Z,75.90
2023-12-01T13:04:32.002Z,75.93
2023-12-01T13:06:58.451Z,76.12
2023-12-01T13:09:24.855Z,73.22
2023-12-01T13:11:51.814Z,72.92
2023-12-01T13:14:18.201Z,74.75
2023-12-01T13:16:52.692Z,75.43
2023-12-01T13:19:22.657Z,74.58
2023-12-01T13:21:51.102Z,74.64
2023-12-01T13:24:19.428Z,75.10
2023-12-01T13:26:45.934Z,74.56
2023-12-01T13:29:12.476Z,74.42
2023-12-01T13:31:38.977Z,74.75
2023-12-01T13:34:05.564Z,74.60
2023-12-01T13:36:32.041Z,74.90
2023-12-01T13:38:58.563Z,75.15
2023-12-01T13:41:25.053Z,75.32
2023-12-01T13:43:51.449Z,73.81
2023-12-01T13:46:17.994Z,73.84
2023-12-01T13:48:44.559Z,73.04
2023-12-01T13:51:11.125Z,71.52
2023-12-01T13:53:37.684Z,70.67
2023-12-01T13:56:08.725Z,70.50
2023-12-01T13:58:37.688Z,70.00
2023-12-01T14:01:04.203Z,70.57
2023-12-01T14:03:32.394Z,68.96
2023-12-01T14:05:59.346Z,69.93
2023-12-01T14:08:25.881Z,70.67
2023-12-01T14:10:52.306Z,70.83
2023-12-01T14:13:18.720Z,71.44
2023-12-01T14:15:45.168Z,71.32
2023-12-01T14:18:11.667Z,71.64
2023-12-01T14:20:38.109Z,70.48
2023-12-01T14:23:04.510Z,71.28
2023-12-01T14:25:30.895Z,71.38
2023-12-01T14:27:57.335Z,71.69
2023-12-01T14:30:23.765Z,71.53
2023-12-01T14:32:50.273Z,72.39
2023-12-01T14:35:16.816Z,72.56
2023-12-01T14:37:43.311Z,71.82
2023-12-01T14:40:09.693Z,71.89
2023-12-01T14:42:36.071Z,72.45
2023-12-01T14:45:02.519Z,72.28
2023-12-01T14:47:29.650Z,72.46
2023-12-01T14:49:56.122Z,72.48
2023-12-01T14:52:22.517Z,71.68
2023-12-01T14:54:48.929Z,70.76
2023-12-01T14:57:15.342Z,70.25
2023-12-01T14:59:43.873Z,70.21
2023-12-01T15:02:10.588Z,70.98
2023-12-01T15:04:37.056Z,71.70
2023-12-01T15:07:03.486Z,71.24
2023-12-01T15:09:29.903Z,71.02
2023-12-01T15:11:56.324Z,71.38
2023-12-01T15:14:22.732Z,71.11
2023-12-01T15:16:49.361Z,70.93
2023-12-01T15:19:15.784Z,70.51
2023-12-01T15:21:42.164Z,69.45
2023-12-01T15:24:08.556Z,69.84
2023-12-01T15:26:34.992Z,70.85
2023-12-01T15:29:01.387Z,71.43
2023-12-01T15:31:27.817Z,70.95
2023-12-01T15:33:54.276Z,70.37
2023-12-01T15:36:20.797Z,69.39
2023-12-01T15:38:47.245Z,69.68
2023-12-01T15:41:13.643Z,70.63
2023-12-01T15:43:40.022Z,71.35
2023-12-01T15:46:06.448Z,71.77
2023-12-01T15:48:32.963Z,71.84
2023-12-01T15:50:59.478Z,71.19
2023-12-01T15:53:25.929Z,71.32
2023-12-01T15:55:52.334Z,72.55
2023-12-01T15:58:18.784Z,72.69
2023-12-01T16:00:45.360Z,72.32
2023-12-01T16:03:11.981Z,72.24
2023-12-01T16:05:38.453Z,71.99
2023-12-01T16:08:04.916Z,72.18
2023-12-01T16:10:31.342Z,71.60
2023-12-01T16:12:57.743Z,71.54
2023-12-01T16:15:24.171Z,71.94
2023-12-01T16:17:50.708Z,71.62
2023-12-01T16:20:17.285Z,72.02
2023-12-01T16:22:43.825Z,71.30
2023-12-01T16:25:10.314Z,71.71
2023-12-01T16:27:36.741Z,71.79
2023-12-01T16:30:03.259Z,71.48
2023-12-01T16:32:29.828Z,72.04
2023-12-01T16:34:56.309Z,71.70
2023-12-01T16:37:22.786Z,72.03
2023-12-01T16:39:51.764Z,72.77
2023-12-01T16:42:18.204Z,73.18
2023-12-01T16:44:44.642Z,73.57
2023-12-01T16:47:11.211Z,73.65
2023-12-01T16:49:37.755Z,74.25
2023-12-01T16:52:04.216Z,74.16
2023-12-01T16:54:30.663Z,74.35
2023-12-01T16:56:57.132Z,74.00
2023-12-01T16:59:23.588Z,74.20
2023-12-01T17:01:50.020Z,73.76
2023-12-01T17:04:16.555Z,74.62
2023-12-01T17:06:43.027Z,74.22
2023-12-01T17:09:09.459Z,73.92
2023-12-01T17:11:35.976Z,74.67
2023-12-01T17:14:02.436Z,74.68
2023-12-01T17:16:28.935Z,74.58
2023-12-01T17:18:55.535Z,73.91
2023-12-01T17:21:24.441Z,74.07
2023-12-01T17:23:50.919Z,73.98
2023-12-01T17:26:17.394Z,74.63
2023-12-01T17:28:43.819Z,75.00
2023-12-01T17:31:10.247Z,74.49
2023-12-01T17:33:36.766Z,75.06
2023-12-01T17:36:03.330Z,74.38
2023-12-01T17:38:29.859Z,74.32
2023-12-01T17:40:56.293Z,74.80
2023-12-01T17:43:22.725Z,73.90
2023-12-01T17:45:49.158Z,74.63
2023-12-01T17:48:15.779Z,74.26
2023-12-01T17:50:42.249Z,74.10
2023-12-01T17:53:08.651Z,74.18
2023-12-01T17:55:35.069Z,73.31
2023-12-01T17:58:01.535Z,74.07
2023-12-01T18:00:27.996Z,74.72
2023-12-01T18:02:54.473Z,74.02
2023-12-01T18:05:21.010Z,74.37
2023-12-01T18:07:47.575Z,75.18
2023-12-01T18:10:14.058Z,74.65
2023-12-01T18:12:40.481Z,74.20
2023-12-01T18:15:06.990Z,72.98
2023-12-01T18:17:33.575Z,72.80
2023-12-01T18:20:00.055Z,73.04
2023-12-01T18:22:26.550Z,73.37
2023-12-01T18:24:52.951Z,74.05
2023-12-01T18:27:19.489Z,73.95
2023-12-01T18:29:46.014Z,73.77
2023-12-01T18:32:12.445Z,74.07
2023-12-01T18:34:38.888Z,73.70
2023-12-01T18:37:05.333Z,74.09
2023-12-01T18:39:31.814Z,73.53
2023-12-01T18:41:58.321Z,73.94
2023-12-01T18:44:24.794Z,73.25
2023-12-01T18:46:51.406Z,73.60
2023-12-01T18:49:17.897Z,73.54
2023-12-01T18:51:44.400Z,72.80
2023-12-01T18:54:10.963Z,72.82
2023-12-01T18:56:37.761Z,72.63
2023-12-01T18:59:04.262Z,70.75
2023-12-01T19:01:30.814Z,69.50
2023-12-01T19:03:57.413Z,69.82
2023-12-01T19:06:23.967Z,70.35
2023-12-01T19:08:50.566Z,70.56
2023-12-01T19:11:17.111Z,70.34
2023-12-01T19:13:43.572Z,69.99
2023-12-01T19:16:10.049Z,69.72
2023-12-01T19:18:38.581Z,69.68
2023-12-01T19:21:05.289Z,70.03
2023-12-01T19:23:31.792Z,70.44
2023-12-01T19:25:58.201Z,70.38
2023-12-01T19:28:24.652Z,70.32
2023-12-01T19:30:51.161Z,70.03
2023-12-01T19:33:20.819Z,70.13
2023-12-01T19:35:47.450Z,70.90
2023-12-01T19:38:13.899Z,70.51
2023-12-01T19:40:40.398Z,71.08
2023-12-01T19:43:06.833Z,70.42
2023-12-01T19:45:33.390Z,70.05
2023-12-01T19:47:59.924Z,69.24
2023-12-01T19:50:26.387Z,70.20
2023-12-01T19:52:52.793Z,70.11
2023-12-01T19:55:19.220Z,69.81
2023-12-01T19:57:45.636Z,70.26
2023-12-01T20:00:15.029Z,70.47
2023-12-01T20:02:41.489Z,71.98
2023-12-01T20:05:07.993Z,72.44
2023-12-01T20:07:34.493Z,72.02
2023-12-01T20:10:00.919Z,72.40
2023-12-01T20:12:27.383Z,72.32
2023-12-01T20:14:53.848Z,71.14
2023-12-01T20:17:20.274Z,70.99
2023-12-01T20:19:46.694Z,71.16
2023-12-01T20:22:13.122Z,70.82
2023-12-01T20:24:39.533Z,70.37
2023-12-01T20:27:06.008Z,70.21
2023-12-01T20:29:32.438Z,70.85
2023-12-01T20:31:58.859Z,71.23
2023-12-01T20:34:25.273Z,71.16
2023-12-01T20:36:51.781Z,70.78
2023-12-01T20:39:18.282Z,72.09
2023-12-01T20:41:44.724Z,71.88
2023-12-01T20:44:11.143Z,71.61
2023-12-01T20:46:37.620Z,70.37
2023-12-01T20:49:04.102Z,69.93
2023-12-01T20:51:30.585Z,71.24
2023-12-01T20:53:57.179Z,71.70
2023-12-01T20:56:23.597Z,71.53
2023-12-01T20:58:50.042Z,72.18
2023-12-01T21:01:18.381Z,71.40
2023-12-01T21:03:46.152Z,70.37
2023-12-01T21:06:12.629Z,70.68
2023-12-01T21:08:39.075Z,71.31
2023-12-01T21:11:05.525Z,70.56
2023-12-01T21:13:31.962Z,70.66
2023-12-01T21:15:58.367Z,70.97
2023-12-01T21:18:24.910Z,70.98
2023-12-01T21:20:51.407Z,70.81
2023-12-01T21:23:17.884Z,71.34
2023-12-01T21:25:44.348Z,70.87
2023-12-01T21:28:10.802Z,71.72
2023-12-01T21:30:37.271Z,72.29
2023-12-01T21:33:05.996Z,72.47
2023-12-01T21:35:34.190Z,72.67
2023-12-01T21:38:00.615Z,72.54
2023-12-01T21:40:27.077Z,71.54
2023-12-01T21:42:53.518Z,72.18
2023-12-01T21:45:20.006Z,72.31
2023-12-01T21:47:46.423Z,73.01
2023-12-01T21:50:13.066Z,72.44
2023-12-01T21:52:39.542Z,73.17
2023-12-01T21:55:05.961Z,72.70
2023-12-01T21:57:32.468Z,72.61
2023-12-01T21:59:58.975Z,72.51
2023-12-01T22:02:25.518Z,72.74
2023-12-01T22:04:52.026Z,72.31
2023-12-01T22:07:18.445Z,73.06
2023-12-01T22:09:44.865Z,73.17
2023-12-01T22:12:11.311Z,73.01
2023-12-01T22:14:37.800Z,73.12
2023-12-01T22:17:04.237Z,72.89
2023-12-01T22:19:30.811Z,72.31
2023-12-01T22:21:59.814Z,72.24
2023-12-01T22:24:26.584Z,71.59
2023-12-01T22:26:53.028Z,71.03
2023-12-01T22:29:19.483Z,70.67
2023-12-01T22:31:45.948Z,71.51
2023-12-01T22:34:12.398Z,71.77
2023-12-01T22:36:38.797Z,71.96
2023-12-01T22:39:05.282Z,70.91
2023-12-01T22:41:31.793Z,71.96
2023-12-01T22:44:01.788Z,72.17
2023-12-01T22:46:28.533Z,71.54
2023-12-01T22:48:55.119Z,71.80
2023-12-01T22:51:21.632Z,71.11
2023-12-01T22:53:48.178Z,70.62
2023-12-01T22:56:14.702Z,71.29
2023-12-01T22:58:43.133Z,71.52
2023-12-01T23:01:09.647Z,70.77
2023-12-01T23:03:36.327Z,70.91
2023-12-01T23:06:03.171Z,71.00
2023-12-01T23:08:29.725Z,71.24
2023-12-01T23:11:03.867Z,72.19
2023-12-01T23:13:30.370Z,72.53
2023-12-01T23:15:56.854Z,72.68
2023-12-01T23:18:23.465Z,72.65
2023-12-01T23:20:50.003Z,72.82
2023-12-01T23:23:16.539Z,71.98
2023-12-01T23:25:43.006Z,72.40
2023-12-01T23:28:09.577Z,71.94
2023-12-01T23:30:36.178Z,71.40
2023-12-01T23:33:02.796Z,72.24
2023-12-01T23:35:29.423Z,71.80
2023-12-01T23:37:55.909Z,71.86
2023-12-01T23:40:22.351Z,71.21
2023-12-01T23:42:48.818Z,71.50
2023-12-01T23:45:15.332Z,71.25
2023-12-01T23:47:41.916Z,70.95
2023-12-01T23:50:08.426Z,71.07
2023-12-01T23:52:34.952Z,70.90
2023-12-01T23:55:01.441Z,71.59
2023-12-01T23:57:27.946Z,71.50
2023-12-01T23:59:54.482Z,71.09
